createdAt,value
2022-12-26T00:01:27.562Z,1.77
2022-12-26T00:03:57.870Z,1.70
2022-12-26T00:06:28.141Z,1.98
2022-12-26T00:08:57.001Z,1.80
2022-12-26T00:11:26.409Z,1.98
2022-12-26T00:13:58.998Z,2.10
2022-12-26T00:16:28.547Z,1.60
2022-12-26T00:18:58.454Z,1.77
2022-12-26T00:21:29.142Z,1.73
2022-12-26T00:23:58.956Z,1.50
2022-12-26T00:26:29.471Z,1.75
2022-12-26T00:28:58.005Z,1.60
2022-12-26T00:31:28.508Z,1.33
2022-12-26T00:33:58.383Z,1.70
2022-12-26T00:36:29.677Z,1.30
2022-12-26T00:38:59.261Z,1.60
2022-12-26T00:41:27.996Z,1.83
2022-12-26T00:43:57.174Z,1.60
2022-12-26T00:46:26.267Z,1.50
2022-12-26T00:48:55.002Z,1.70
2022-12-26T00:51:24.733Z,1.63
2022-12-26T00:53:53.094Z,1.42
2022-12-26T00:56:21.509Z,1.77
2022-12-26T00:58:50.133Z,1.40
2022-12-26T01:01:20.699Z,1.45
2022-12-26T01:03:50.539Z,1.13
2022-12-26T01:06:18.883Z,1.40
2022-12-26T01:08:48.553Z,1.60
2022-12-26T01:11:38.345Z,1.50
2022-12-26T01:14:07.568Z,1.17
2022-12-26T01:16:36.183Z,1.40
2022-12-26T01:19:04.791Z,1.60
2022-12-26T01:21:33.425Z,1.30
2022-12-26T01:24:03.414Z,1.30
2022-12-26T01:26:32.025Z,1.15
2022-12-26T01:29:00.529Z,1.73
2022-12-26T01:31:29.105Z,1.50
2022-12-26T01:33:57.691Z,1.30
2022-12-26T01:36:26.255Z,1.25
2022-12-26T01:38:54.735Z,1.48
2022-12-26T01:41:24.385Z,1.58
2022-12-26T01:43:59.437Z,1.13
2022-12-26T01:46:32.915Z,1.60
2022-12-26T01:49:07.601Z,1.30
2022-12-26T01:51:39.522Z,1.42
2022-12-26T01:54:37.352Z,1.30
2022-12-26T01:57:02.609Z,1.15
2022-12-26T01:59:32.991Z,1.08
2022-12-26T02:02:02.564Z,1.00
2022-12-26T02:04:53.005Z,1.20
2022-12-26T02:07:21.597Z,1.05
2022-12-26T02:09:50.168Z,1.20
2022-12-26T02:12:36.316Z,1.13
2022-12-26T02:15:09.279Z,1.05
2022-12-26T02:17:39.371Z,1.00
2022-12-26T02:20:18.306Z,0.98
2022-12-26T02:23:13.245Z,1.10
2022-12-26T02:26:17.279Z,1.02
2022-12-26T02:29:15.031Z,0.93
2022-12-26T02:31:49.979Z,1.13
2022-12-26T02:34:24.328Z,0.93
2022-12-26T02:37:06.820Z,0.93
2022-12-26T02:39:52.092Z,1.02
2022-12-26T02:42:30.547Z,0.90
2022-12-26T02:45:23.759Z,1.00
2022-12-26T02:47:59.714Z,0.93
2022-12-26T02:50:55.039Z,0.88
2022-12-26T02:53:51.563Z,0.95
2022-12-26T02:56:45.070Z,1.00
2022-12-26T02:59:55.629Z,1.00
2022-12-26T03:02:48.901Z,1.08
2022-12-26T03:05:40.880Z,1.10
2022-12-26T03:08:36.419Z,1.17
2022-12-26T03:11:22.807Z,0.90
2022-12-26T03:13:53.138Z,0.90
2022-12-26T03:16:41.681Z,1.08
2022-12-26T03:19:13.411Z,0.95
2022-12-26T03:21:46.188Z,1.00
2022-12-26T03:24:17.034Z,1.20
2022-12-26T03:26:49.354Z,0.68
2022-12-26T03:29:52.319Z,0.95
2022-12-26T03:32:20.947Z,1.10
2022-12-26T03:34:48.502Z,0.82
2022-12-26T03:37:48.960Z,0.90
2022-12-26T03:40:48.490Z,1.13
2022-12-26T03:43:44.699Z,0.93
2022-12-26T03:46:39.821Z,1.13
2022-12-26T03:49:34.532Z,0.95
2022-12-26T03:52:24.407Z,0.93
2022-12-26T03:55:16.556Z,0.90
2022-12-26T03:58:10.489Z,0.80
2022-12-26T04:00:58.873Z,1.00
2022-12-26T04:03:56.341Z,0.88
2022-12-26T04:06:47.797Z,0.90
2022-12-26T04:09:38.577Z,1.13
2022-12-26T04:12:33.196Z,0.90
2022-12-26T04:15:22.414Z,0.88
2022-12-26T04:18:14.261Z,1.20
2022-12-26T04:23:37.043Z,1.33
2022-12-26T04:26:27.658Z,1.02
2022-12-26T04:29:14.937Z,1.33
2022-12-26T04:32:06.508Z,1.08
2022-12-26T04:35:04.227Z,0.80
2022-12-26T04:37:52.894Z,0.90
2022-12-26T04:40:43.891Z,1.35
2022-12-26T04:43:49.562Z,0.80
2022-12-26T04:46:21.660Z,1.05
2022-12-26T04:49:09.415Z,0.82
2022-12-26T04:51:38.422Z,1.00
2022-12-26T04:54:07.793Z,0.80
2022-12-26T04:56:36.379Z,1.00
2022-12-26T04:59:04.972Z,0.85
2022-12-26T05:01:51.884Z,0.70
2022-12-26T05:04:38.487Z,1.10
2022-12-26T05:07:26.593Z,0.90
2022-12-26T05:09:55.513Z,0.60
2022-12-26T05:12:24.027Z,0.80
2022-12-26T05:14:52.239Z,0.90
2022-12-26T05:17:39.687Z,0.90
2022-12-26T05:20:26.508Z,0.82
2022-12-26T05:23:12.460Z,0.68
2022-12-26T05:26:01.102Z,0.70
2022-12-26T05:28:45.634Z,0.90
2022-12-26T05:31:15.950Z,1.17
2022-12-26T05:34:03.631Z,0.80
2022-12-26T05:36:35.899Z,1.00
2022-12-26T05:39:04.484Z,0.77
2022-12-26T05:41:33.101Z,0.80
2022-12-26T05:44:01.659Z,0.98
2022-12-26T05:46:30.309Z,0.90
2022-12-26T05:49:00.349Z,0.85
2022-12-26T05:51:28.882Z,1.00
2022-12-26T05:53:57.391Z,1.00
2022-12-26T05:56:25.779Z,0.90
2022-12-26T05:58:56.468Z,1.00
2022-12-26T06:01:25.212Z,0.80
2022-12-26T06:03:55.209Z,0.65
2022-12-26T06:06:26.490Z,0.70
2022-12-26T06:08:57.069Z,1.10
2022-12-26T06:11:27.019Z,0.82
2022-12-26T06:13:56.194Z,0.88
2022-12-26T06:16:24.746Z,0.80
2022-12-26T06:18:53.295Z,0.88
2022-12-26T06:21:22.145Z,1.00
2022-12-26T06:23:52.109Z,0.90
2022-12-26T06:26:20.598Z,0.80
2022-12-26T06:28:49.133Z,0.63
2022-12-26T06:31:20.939Z,0.80
2022-12-26T06:33:50.644Z,0.80
2022-12-26T06:36:20.436Z,0.82
2022-12-26T06:38:49.167Z,0.90
2022-12-26T06:41:21.027Z,1.08
2022-12-26T06:43:49.685Z,0.73
2022-12-26T06:46:20.044Z,0.80
2022-12-26T06:48:48.791Z,1.10
2022-12-26T06:51:20.284Z,0.90
2022-12-26T06:53:49.606Z,1.00
2022-12-26T06:56:21.411Z,0.75
2022-12-26T06:58:53.745Z,0.80
2022-12-26T07:01:22.519Z,0.95
2022-12-26T07:03:53.611Z,0.80
2022-12-26T07:06:24.887Z,0.90
2022-12-26T07:08:54.157Z,0.70
2022-12-26T07:11:26.062Z,0.80
2022-12-26T07:13:55.738Z,0.80
2022-12-26T07:16:25.013Z,0.90
2022-12-26T07:18:54.805Z,0.80
2022-12-26T07:21:24.315Z,0.60
2022-12-26T07:23:53.130Z,0.88
2022-12-26T07:26:21.487Z,0.75
2022-12-26T07:28:54.446Z,0.82
2022-12-26T07:31:23.185Z,0.70
2022-12-26T07:33:52.005Z,1.00
2022-12-26T07:36:20.790Z,0.80
2022-12-26T07:38:49.453Z,0.88
2022-12-26T07:41:35.653Z,1.08
2022-12-26T07:44:06.101Z,0.70
2022-12-26T07:46:34.804Z,0.80
2022-12-26T07:49:03.565Z,0.90
2022-12-26T07:51:32.082Z,0.77
2022-12-26T07:54:03.200Z,0.80
2022-12-26T07:56:35.682Z,0.68
2022-12-26T07:59:05.265Z,0.80
2022-12-26T08:01:33.867Z,0.88
2022-12-26T08:04:02.627Z,0.85
2022-12-26T08:06:31.158Z,0.90
2022-12-26T08:08:59.949Z,0.63
2022-12-26T08:11:30.641Z,0.85
2022-12-26T08:13:59.229Z,0.88
2022-12-26T08:16:29.371Z,0.90
2022-12-26T08:18:57.951Z,0.75
2022-12-26T08:21:26.445Z,0.80
2022-12-26T08:23:54.686Z,0.88
2022-12-26T08:26:23.496Z,0.90
2022-12-26T08:28:53.325Z,1.10
2022-12-26T08:31:22.656Z,1.00
2022-12-26T08:33:55.622Z,1.20
2022-12-26T08:36:24.856Z,1.00
2022-12-26T08:38:53.359Z,1.05
2022-12-26T08:41:22.204Z,1.15
2022-12-26T08:46:39.849Z,0.93
2022-12-26T08:49:09.474Z,0.85
2022-12-26T08:51:38.032Z,0.70
2022-12-26T08:54:07.320Z,1.02
2022-12-26T08:56:35.827Z,1.02
2022-12-26T08:59:04.348Z,1.02
2022-12-26T09:01:34.260Z,1.02
2022-12-26T09:04:06.680Z,1.40
2022-12-26T09:06:38.830Z,1.30
2022-12-26T09:09:08.934Z,1.40
2022-12-26T09:11:37.406Z,1.20
2022-12-26T09:14:07.954Z,1.30
2022-12-26T09:16:44.215Z,1.20
2022-12-26T09:19:17.883Z,1.27
2022-12-26T09:21:48.341Z,1.20
2022-12-26T09:24:18.572Z,1.52
2022-12-26T09:26:47.329Z,1.40
2022-12-26T09:29:17.277Z,1.20
2022-12-26T09:31:45.550Z,1.13
2022-12-26T09:34:13.735Z,1.40
2022-12-26T09:36:42.177Z,1.55
2022-12-26T09:39:12.737Z,1.00
2022-12-26T09:42:00.877Z,1.00
2022-12-26T09:44:40.118Z,1.25
2022-12-26T09:47:23.081Z,1.42
2022-12-26T09:49:57.217Z,1.30
2022-12-26T09:52:37.071Z,1.20
2022-12-26T09:55:28.424Z,1.30
2022-12-26T09:58:00.818Z,1.42
2022-12-26T10:00:34.381Z,1.13
2022-12-26T10:03:03.249Z,1.15
2022-12-26T10:05:39.649Z,1.30
2022-12-26T10:08:19.782Z,1.17
2022-12-26T10:10:57.513Z,1.33
2022-12-26T10:13:35.596Z,1.25
2022-12-26T10:16:10.066Z,1.10
2022-12-26T10:18:50.559Z,0.93
2022-12-26T10:21:28.446Z,0.90
2022-12-26T10:24:00.650Z,1.10
2022-12-26T10:26:34.394Z,1.20
2022-12-26T10:29:12.784Z,1.13
2022-12-26T10:31:46.245Z,1.10
2022-12-26T10:34:20.312Z,1.17
2022-12-26T10:36:50.876Z,1.08
2022-12-26T10:39:25.728Z,0.85
2022-12-26T10:42:00.174Z,1.20
2022-12-26T10:44:28.910Z,1.10
2022-12-26T10:47:14.292Z,1.30
2022-12-26T10:49:46.134Z,1.00
2022-12-26T10:52:17.634Z,1.08
2022-12-26T10:54:48.219Z,1.50
2022-12-26T10:57:18.471Z,1.52
2022-12-26T10:59:50.365Z,1.33
2022-12-26T11:02:26.563Z,1.25
2022-12-26T11:06:05.958Z,1.02
2022-12-26T11:07:55.350Z,1.38
2022-12-26T11:10:27.505Z,1.40
2022-12-26T11:13:00.145Z,1.27
2022-12-26T11:15:38.712Z,0.95
2022-12-26T11:18:11.092Z,1.33
2022-12-26T11:20:40.407Z,1.10
2022-12-26T11:23:24.443Z,1.00
2022-12-26T11:25:54.922Z,1.30
2022-12-26T11:28:31.097Z,1.20
2022-12-26T11:30:59.819Z,1.50
2022-12-26T11:33:33.660Z,1.23
2022-12-26T11:36:09.743Z,1.58
2022-12-26T11:38:48.219Z,1.60
2022-12-26T11:41:33.237Z,1.20
2022-12-26T11:44:19.518Z,1.40
2022-12-26T11:46:54.913Z,1.52
2022-12-26T11:49:29.360Z,1.50
2022-12-26T11:52:00.106Z,1.45
2022-12-26T11:54:33.376Z,1.40
2022-12-26T11:57:14.553Z,1.45
2022-12-26T11:59:44.773Z,1.80
2022-12-26T12:02:24.360Z,1.35
2022-12-26T12:04:55.830Z,1.67
2022-12-26T12:07:51.409Z,1.70
2022-12-26T12:11:00.299Z,1.40
2022-12-26T12:13:43.102Z,1.35
2022-12-26T12:16:25.572Z,1.30
2022-12-26T12:19:06.622Z,1.42
2022-12-26T12:21:44.741Z,1.60
2022-12-26T12:24:50.665Z,1.30
2022-12-26T12:27:28.861Z,1.70
2022-12-26T12:30:17.748Z,1.67
2022-12-26T12:33:06.043Z,1.52
2022-12-26T12:35:45.576Z,1.98
2022-12-26T12:38:31.150Z,1.83
2022-12-26T12:41:15.353Z,2.08
2022-12-26T12:43:49.176Z,1.80
2022-12-26T12:46:26.101Z,1.73
2022-12-26T12:49:21.259Z,1.88
2022-12-26T12:51:57.736Z,1.85
2022-12-26T12:54:59.678Z,1.95
2022-12-26T12:57:35.008Z,2.33
2022-12-26T13:00:15.010Z,2.47
2022-12-26T13:02:56.045Z,2.13
2022-12-26T13:05:34.914Z,2.05
2022-12-26T13:08:08.264Z,2.47
2022-12-26T13:10:43.573Z,2.08
2022-12-26T13:13:19.658Z,2.67
2022-12-26T13:15:52.657Z,2.55
2022-12-26T13:18:24.819Z,2.80
2022-12-26T13:20:57.119Z,2.63
2022-12-26T13:23:49.637Z,2.50
2022-12-26T13:26:20.128Z,2.30
2022-12-26T13:28:59.842Z,2.28
2022-12-26T13:31:34.827Z,2.45
2022-12-26T13:34:04.156Z,2.50
2022-12-26T13:36:40.889Z,2.97
2022-12-26T13:39:35.601Z,2.80
2022-12-26T13:42:39.338Z,3.30
2022-12-26T13:45:44.099Z,2.92
2022-12-26T13:48:49.487Z,3.03
2022-12-26T13:51:48.116Z,2.40
2022-12-26T13:54:18.179Z,2.80
2022-12-26T13:57:20.180Z,3.03
2022-12-26T14:00:08.361Z,3.08
2022-12-26T14:03:19.578Z,2.78
2022-12-26T14:06:21.349Z,2.47
2022-12-26T14:09:06.160Z,2.78
2022-12-26T14:11:47.558Z,2.70
2022-12-26T14:14:26.933Z,2.70
2022-12-26T14:17:00.126Z,2.38
2022-12-26T14:19:43.719Z,2.00
2022-12-26T14:22:19.328Z,2.20
2022-12-26T14:25:03.955Z,2.22
2022-12-26T14:27:40.174Z,2.20
2022-12-26T14:30:22.457Z,2.40
2022-12-26T14:33:04.492Z,2.63
2022-12-26T14:35:38.373Z,2.70
2022-12-26T14:38:26.445Z,2.42
2022-12-26T14:41:03.633Z,2.92
2022-12-26T14:43:37.222Z,2.30
2022-12-26T14:46:11.536Z,2.28
2022-12-26T14:49:01.535Z,2.47
2022-12-26T14:51:40.156Z,2.42
2022-12-26T14:54:37.212Z,2.20
2022-12-26T14:57:54.188Z,2.30
2022-12-26T15:00:33.720Z,2.17
2022-12-26T15:03:44.623Z,2.45
2022-12-26T15:06:51.592Z,2.50
2022-12-26T15:09:59.455Z,2.30
2022-12-26T15:13:13.674Z,2.50
2022-12-26T15:15:56.121Z,1.92
2022-12-26T15:19:12.752Z,2.70
2022-12-26T15:22:21.593Z,2.65
2022-12-26T15:25:24.356Z,2.80
2022-12-26T15:28:25.217Z,2.40
2022-12-26T15:31:24.868Z,2.80
2022-12-26T15:34:06.962Z,1.95
2022-12-26T15:36:45.532Z,2.42
2022-12-26T15:39:26.715Z,2.33
2022-12-26T15:42:05.288Z,2.05
2022-12-26T15:44:44.040Z,1.67
2022-12-26T15:47:19.219Z,1.80
2022-12-26T15:50:00.286Z,1.50
2022-12-26T15:52:41.148Z,1.60
2022-12-26T15:55:37.448Z,1.60
2022-12-26T15:58:16.470Z,1.38
2022-12-26T16:00:51.241Z,1.30
2022-12-26T16:03:35.568Z,1.30
2022-12-26T16:06:21.170Z,1.20
2022-12-26T16:09:14.611Z,1.20
2022-12-26T16:11:53.862Z,1.10
2022-12-26T16:14:33.954Z,1.20
2022-12-26T16:17:18.883Z,0.98
2022-12-26T16:19:50.290Z,0.80
2022-12-26T16:22:39.631Z,0.77
2022-12-26T16:25:08.971Z,0.68
2022-12-26T16:27:38.994Z,0.50
2022-12-26T16:30:13.947Z,0.65
2022-12-26T16:32:44.512Z,0.60
2022-12-26T16:35:21.942Z,0.45
2022-12-26T16:37:51.878Z,0.50
2022-12-26T16:40:24.923Z,0.40
2022-12-26T16:43:01.977Z,0.60
2022-12-26T16:45:33.510Z,0.45
2022-12-26T16:48:02.204Z,0.70
2022-12-26T16:50:33.087Z,0.50
2022-12-26T16:53:12.911Z,0.52
2022-12-26T16:55:44.543Z,0.90
2022-12-26T17:00:49.982Z,0.55
2022-12-26T17:03:28.792Z,0.50
2022-12-26T17:05:58.660Z,0.70
2022-12-26T17:08:27.247Z,0.68
2022-12-26T17:10:55.727Z,0.73
2022-12-26T17:13:27.619Z,0.52
2022-12-26T17:15:58.400Z,0.50
2022-12-26T17:18:37.142Z,0.65
2022-12-26T17:21:20.400Z,0.60
2022-12-26T17:24:14.868Z,0.50
2022-12-26T17:26:44.938Z,0.60
2022-12-26T17:29:51.997Z,0.70
2022-12-26T17:32:33.383Z,0.50
2022-12-26T17:35:04.418Z,0.63
2022-12-26T17:37:34.682Z,0.70
2022-12-26T17:40:21.034Z,0.60
2022-12-26T17:42:51.299Z,0.80
2022-12-26T17:45:21.117Z,38.20
2022-12-26T17:47:51.458Z,87.05
2022-12-26T17:50:20.214Z,74.10
2022-12-26T17:52:50.308Z,79.00
2022-12-26T17:55:25.103Z,92.70
2022-12-26T17:57:54.000Z,74.80
2022-12-26T18:00:24.123Z,79.55
2022-12-26T18:02:53.056Z,85.35
2022-12-26T18:05:21.948Z,53.53
2022-12-26T18:07:54.125Z,31.38
2022-12-26T18:10:24.266Z,56.05
2022-12-26T18:12:53.539Z,74.05
2022-12-26T18:15:22.266Z,59.58
2022-12-26T18:17:52.331Z,63.92
2022-12-26T18:20:23.122Z,49.20
2022-12-26T18:22:53.097Z,37.28
2022-12-26T18:25:23.924Z,41.78
2022-12-26T18:27:53.935Z,27.48
2022-12-26T18:30:23.890Z,22.02
2022-12-26T18:32:58.786Z,18.20
2022-12-26T18:35:27.295Z,13.73
2022-12-26T18:37:56.897Z,12.15
2022-12-26T18:40:30.548Z,7.22
2022-12-26T18:42:59.043Z,6.10
2022-12-26T18:45:27.641Z,4.63
2022-12-26T18:47:56.295Z,3.72
2022-12-26T18:50:25.157Z,3.22
2022-12-26T18:52:53.975Z,2.20
2022-12-26T18:55:25.411Z,1.70
2022-12-26T18:57:54.598Z,1.60
2022-12-26T19:00:23.866Z,0.70
2022-12-26T19:02:52.893Z,0.63
2022-12-26T19:05:26.196Z,0.80
2022-12-26T19:07:55.351Z,0.60
2022-12-26T19:10:26.764Z,0.63
2022-12-26T19:13:02.851Z,0.60
2022-12-26T19:15:33.779Z,0.55
2022-12-26T19:18:02.872Z,0.38
2022-12-26T19:20:31.622Z,0.43
2022-12-26T19:23:00.149Z,0.40
2022-12-26T19:25:29.962Z,0.47
2022-12-26T19:27:59.121Z,0.70
2022-12-26T19:30:27.440Z,0.40
2022-12-26T19:32:56.054Z,0.50
2022-12-26T19:35:24.705Z,0.50
2022-12-26T19:37:53.279Z,0.30
2022-12-26T19:40:25.183Z,0.30
2022-12-26T19:42:55.067Z,0.30
2022-12-26T19:45:23.822Z,0.30
2022-12-26T19:47:53.459Z,0.30
2022-12-26T19:50:22.009Z,0.30
2022-12-26T19:52:50.509Z,0.40
2022-12-26T19:55:19.053Z,0.38
2022-12-26T19:57:47.536Z,0.30
2022-12-26T20:00:17.465Z,0.35
2022-12-26T20:02:45.974Z,0.40
2022-12-26T20:05:14.649Z,0.45
2022-12-26T20:07:43.200Z,0.50
2022-12-26T20:10:11.749Z,0.40
2022-12-26T20:12:40.213Z,0.30
2022-12-26T20:15:09.234Z,0.50
2022-12-26T20:17:38.912Z,0.38
2022-12-26T20:20:08.243Z,0.30
2022-12-26T20:22:36.552Z,0.38
2022-12-26T20:25:09.743Z,0.35
2022-12-26T20:27:40.655Z,0.30
2022-12-26T20:30:10.802Z,0.40
2022-12-26T20:32:44.012Z,0.30
2022-12-26T20:35:12.539Z,0.30
2022-12-26T20:37:41.178Z,0.40
2022-12-26T20:40:10.500Z,0.30
2022-12-26T20:42:38.672Z,0.30
2022-12-26T20:45:08.157Z,0.30
2022-12-26T20:47:36.816Z,0.30
2022-12-26T20:50:08.445Z,0.30
2022-12-26T20:52:37.020Z,0.30
2022-12-26T20:55:05.748Z,0.30
2022-12-26T20:57:34.313Z,0.32
2022-12-26T21:00:02.856Z,0.30
2022-12-26T21:02:31.597Z,0.30
2022-12-26T21:05:01.455Z,0.30
2022-12-26T21:07:32.917Z,0.25
2022-12-26T21:12:29.704Z,0.40
2022-12-26T21:14:58.011Z,0.40
2022-12-26T21:17:26.916Z,0.40
2022-12-26T21:19:55.266Z,0.40
2022-12-26T21:22:24.225Z,0.40
2022-12-26T21:24:54.004Z,0.20
2022-12-26T21:27:22.554Z,0.20
2022-12-26T21:29:51.126Z,0.20
2022-12-26T21:32:19.697Z,0.20
2022-12-26T21:34:47.941Z,0.20
2022-12-26T21:37:34.448Z,0.40
2022-12-26T21:40:04.819Z,0.20
2022-12-26T21:42:33.408Z,2.70
2022-12-26T21:45:01.996Z,15.50
2022-12-26T21:47:30.548Z,12.43
2022-12-26T21:49:58.888Z,18.20
2022-12-26T21:52:27.491Z,10.57
2022-12-26T21:55:13.285Z,22.13
2022-12-26T21:57:42.986Z,14.00
2022-12-26T22:00:13.830Z,25.95
2022-12-26T22:02:59.742Z,51.63
2022-12-26T22:05:29.699Z,57.15
2022-12-26T22:07:59.808Z,71.97
2022-12-26T22:10:49.130Z,54.58
2022-12-26T22:13:19.938Z,36.65
2022-12-26T22:16:05.448Z,20.98
2022-12-26T22:18:36.324Z,11.32
2022-12-26T22:21:07.439Z,7.00
2022-12-26T22:23:36.354Z,4.20
2022-12-26T22:26:04.940Z,2.83
2022-12-26T22:28:34.938Z,1.80
2022-12-26T22:31:03.433Z,1.55
2022-12-26T22:33:32.223Z,0.80
2022-12-26T22:36:05.959Z,0.60
2022-12-26T22:38:34.788Z,0.60
2022-12-26T22:41:03.129Z,0.45
2022-12-26T22:43:32.648Z,0.40
2022-12-26T22:46:02.304Z,0.40
2022-12-26T22:48:30.797Z,0.30
2022-12-26T22:50:59.091Z,0.30
2022-12-26T22:53:28.324Z,0.28
2022-12-26T22:55:59.398Z,0.45
2022-12-26T22:58:28.902Z,0.40
2022-12-26T23:00:57.683Z,0.30
2022-12-26T23:03:28.349Z,0.22
2022-12-26T23:05:57.459Z,0.20
2022-12-26T23:08:28.341Z,0.40
2022-12-26T23:10:59.430Z,0.38
2022-12-26T23:13:28.237Z,0.30
2022-12-26T23:16:00.808Z,0.30
2022-12-26T23:18:53.666Z,0.22
2022-12-26T23:21:42.770Z,0.30
2022-12-26T23:24:15.783Z,0.25
2022-12-26T23:26:46.075Z,0.30
2022-12-26T23:29:33.538Z,0.40
2022-12-26T23:32:02.130Z,0.40
2022-12-26T23:34:31.779Z,0.30
2022-12-26T23:37:00.306Z,0.40
2022-12-26T23:39:28.550Z,0.20
2022-12-26T23:41:57.336Z,0.35
2022-12-26T23:44:25.624Z,0.30
2022-12-26T23:46:54.171Z,0.40
2022-12-26T23:49:22.449Z,0.38
2022-12-26T23:51:52.190Z,0.30
2022-12-26T23:54:20.483Z,0.40
2022-12-26T23:56:48.990Z,0.30
2022-12-26T23:59:17.259Z,0.30
